Time;durP1;ratioP1;P1;durP2;ratioP2;P2;SDS_P1;SDS_P2;PMS_P1;PMS_P2;Temp;Humidity;BMP_temperature;BMP_pressure;BME280_temperature;BME280_humidity;BME280_pressure;Samples;Min_cycle;Max_cycle;Signal;HPM_P1;HPM_P2
2022/06/06 00:02:02;;;;;;;614.85;586.03;;;17.00;99.90;;;17.25;100.00;100650.84;5048017;28;20288;-63
2022/06/06 00:04:31;;;;;;;618.97;589.53;;;17.00;99.90;;;17.35;100.00;100648.91;5050406;28;20225;-62
2022/06/06 00:06:59;;;;;;;629.65;600.10;;;17.00;99.90;;;17.22;100.00;100636.63;5078128;28;20279;-63
2022/06/06 00:09:27;;;;;;;658.55;626.97;;;17.10;99.90;;;17.28;100.00;100644.56;5047171;28;20214;-63
2022/06/06 00:11:58;;;;;;;637.78;607.50;;;17.00;99.90;;;17.16;100.00;100631.38;5057156;28;20228;-63
2022/06/06 00:14:26;;;;;;;660.10;627.90;;;17.00;99.90;;;17.09;100.00;100635.94;5041847;28;20223;-63
2022/06/06 00:16:54;;;;;;;671.13;639.85;;;17.00;99.90;;;17.20;100.00;100636.66;5032243;28;20201;-63
2022/06/06 00:19:23;;;;;;;677.63;644.60;;;17.00;99.90;;;17.22;100.00;100636.63;5030495;28;20665;-63
2022/06/06 00:21:52;;;;;;;655.35;624.28;;;17.00;99.90;;;17.24;100.00;100634.81;5057554;28;20209;-62
2022/06/06 00:24:20;;;;;;;663.53;631.92;;;17.00;99.90;;;17.16;100.00;100629.59;5058958;28;20210;-62
2022/06/06 00:26:49;;;;;;;677.45;645.00;;;17.00;99.90;;;17.17;100.00;100635.81;5046488;28;20202;-63
2022/06/06 00:29:19;;;;;;;677.63;644.75;;;17.00;99.90;;;17.29;100.00;100632.97;5027122;28;20208;-62
2022/06/06 00:34:54;;;;;;;691.05;658.03;;;17.10;99.90;;;17.45;100.00;100626.47;5065181;28;20221;-62
2022/06/06 00:37:30;;;;;;;662.58;631.08;;;17.10;99.90;;;17.30;100.00;100613.34;5034926;28;20204;-62
2022/06/06 00:39:58;;;;;;;655.67;624.78;;;17.10;99.90;;;17.37;100.00;100614.13;5057352;28;20204;-62
2022/06/06 00:42:33;;;;;;;646.55;615.70;;;17.10;99.90;;;17.22;100.00;100613.47;5035087;28;20217;-62
2022/06/06 00:45:22;;;;;;;676.80;644.85;;;17.10;99.90;;;17.30;100.00;100617.81;5064776;28;20642;-62
2022/06/06 00:47:53;;;;;;;663.75;632.65;;;16.70;99.90;;;17.22;100.00;100615.25;5055196;28;20213;-62
2022/06/06 00:50:34;;;;;;;649.33;618.05;;;17.00;99.90;;;17.16;100.00;100621.56;5052508;28;20237;-62
2022/06/06 00:53:03;;;;;;;647.33;617.13;;;17.00;99.90;;;17.34;100.00;100631.09;5070445;28;20201;-62
2022/06/06 00:55:38;;;;;;;654.25;622.92;;;17.00;99.90;;;17.33;100.00;100620.44;5058978;28;20194;-62
2022/06/06 00:58:13;;;;;;;645.80;614.97;;;17.00;99.90;;;17.35;100.00;100618.63;5033656;28;20188;-62
2022/06/06 01:00:43;;;;;;;659.03;627.10;;;17.00;99.90;;;17.50;100.00;100627.28;5037285;28;20231;-62
2022/06/06 01:03:15;;;;;;;679.13;646.33;;;17.10;99.90;;;17.41;100.00;100598.03;5066199;28;20212;-62
2022/06/06 01:05:46;;;;;;;681.63;649.33;;;17.10;99.90;;;17.22;100.00;100592.09;5032203;28;20210;-63
2022/06/06 01:08:20;;;;;;;660.03;628.60;;;17.10;99.90;;;17.11;100.00;100594.03;5039072;28;20200;-62
2022/06/06 01:10:49;;;;;;;655.35;623.67;;;17.00;99.90;;;17.11;100.00;100604.72;5072977;28;20224;-62
2022/06/06 01:13:22;;;;;;;687.67;654.00;;;17.00;99.90;;;17.27;100.00;100632.09;5075988;28;20669;-62
2022/06/06 01:16:31;;;;;;;691.35;657.33;;;17.00;99.90;;;17.52;100.00;100622.78;5038092;28;20198;-62
2022/06/06 01:19:24;;;;;;;698.85;664.40;;;17.10;99.90;;;17.49;100.00;100601.44;5073538;28;20213;-62
2022/06/06 01:22:34;;;;;;;715.55;679.55;;;17.10;99.90;;;17.64;100.00;100608.31;5053783;28;20224;-62
2022/06/06 01:25:17;;;;;;;671.35;638.38;;;17.10;99.90;;;17.63;100.00;100593.19;5048292;28;20206;-62
2022/06/06 01:28:20;;;;;;;648.60;617.55;;;17.20;99.90;;;17.46;100.00;100585.47;5061036;28;20582;-62
2022/06/06 01:30:55;;;;;;;688.92;655.75;;;17.20;99.90;;;17.48;100.00;100598.81;5061581;28;20696;-63
2022/06/06 01:33:24;;;;;;;696.90;662.45;;;17.20;99.90;;;17.36;100.00;100601.66;5031150;28;20201;-62
2022/06/06 01:35:52;;;;;;;666.15;634.83;;;17.20;99.90;;;17.22;100.00;100597.44;5049231;28;20202;-62
2022/06/06 01:38:23;;;;;;;699.35;664.80;;;17.10;99.90;;;17.12;100.00;100608.28;5080529;28;20220;-62
2022/06/06 01:41:21;;;;;;;661.75;630.47;;;17.10;99.90;;;17.12;100.00;100609.16;5055178;28;20233;-61
2022/06/06 01:44:01;;;;;;;690.75;656.67;;;17.00;99.90;;;17.28;100.00;100615.16;5059101;28;20202;-61
2022/06/06 01:46:34;;;;;;;766.45;726.60;;;17.00;99.90;;;17.19;100.00;100607.28;5052598;28;20201;-62
2022/06/06 01:49:06;;;;;;;703.90;669.28;;;17.00;99.90;;;17.17;100.00;100617.13;5037400;28;21128;-62
2022/06/06 01:51:34;;;;;;;763.90;724.22;;;17.00;99.90;;;17.19;100.00;100612.63;5031929;28;20221;-62
2022/06/06 01:54:31;;;;;;;577.28;549.85;;;17.00;99.90;;;16.80;100.00;100608.72;5053206;28;20226;-62
2022/06/06 01:57:02;;;;;;;628.38;598.17;;;16.90;99.90;;;16.47;100.00;100612.66;5051033;28;20212;-62
2022/06/06 01:59:31;;;;;;;665.85;634.13;;;16.80;99.90;;;16.37;100.00;100625.25;5037550;28;20205;-62
2022/06/06 02:01:59;;;;;;;691.50;657.47;;;16.60;99.90;;;16.20;100.00;100636.09;5072747;28;20216;-62
2022/06/06 02:04:27;;;;;;;615.17;585.70;;;16.50;99.90;;;16.01;100.00;100642.53;5033562;28;20214;-62
2022/06/06 02:06:55;;;;;;;623.85;593.92;;;16.40;99.90;;;15.90;100.00;100649.75;5025447;28;20206;-61
2022/06/06 02:09:23;;;;;;;611.92;583.00;;;16.30;99.90;;;15.85;100.00;100664.91;5044550;28;20201;-64
2022/06/06 02:11:51;;;;;;;619.28;590.03;;;16.20;99.90;;;15.79;100.00;100678.28;5038944;28;20225;-61
2022/06/06 02:14:21;;;;;;;629.60;600.05;;;16.10;99.90;;;15.84;100.00;100695.16;5032928;28;20229;-61
2022/06/06 02:16:49;;;;;;;658.60;626.47;;;16.00;99.90;;;16.02;100.00;100705.66;5035773;28;20202;-61
2022/06/06 02:19:17;;;;;;;647.35;615.83;;;16.00;99.90;;;16.27;100.00;100704.53;5026740;28;20280;-61
2022/06/06 02:21:45;;;;;;;653.22;622.03;;;16.10;99.90;;;16.32;100.00;100704.47;5018144;28;20234;-61
2022/06/06 02:24:13;;;;;;;659.88;628.42;;;16.10;99.90;;;16.22;100.00;100694.78;5033523;28;20205;-61
2022/06/06 02:26:42;;;;;;;634.92;604.28;;;16.10;99.90;;;16.18;100.00;100688.59;5026773;28;20216;-61
2022/06/06 02:29:10;;;;;;;621.72;592.15;;;16.10;99.90;;;16.17;100.00;100699.28;5050746;28;20232;-61
2022/06/06 02:31:38;;;;;;;616.63;586.75;;;16.10;99.90;;;16.15;100.00;100699.31;5034835;28;20229;-61
2022/06/06 02:34:07;;;;;;;655.88;623.90;;;16.10;99.90;;;16.26;100.00;100704.53;5026614;28;20220;-61
2022/06/06 02:36:35;;;;;;;659.33;627.15;;;16.10;99.90;;;16.33;100.00;100704.47;5059077;28;20201;-61
2022/06/06 02:39:06;;;;;;;636.00;605.47;;;17.50;99.90;;;16.35;100.00;100700.88;5049417;28;20224;-61
2022/06/06 02:41:34;;;;;;;675.95;642.53;;;16.10;99.90;;;16.43;100.00;100707.03;5041873;28;20218;-61
2022/06/06 02:44:02;;;;;;;652.92;620.47;;;16.20;99.90;;;16.77;100.00;100704.91;5047395;28;20209;-61
2022/06/06 02:46:31;;;;;;;618.28;588.85;;;16.30;99.90;;;16.75;100.00;100686.22;5032290;28;20213;-61
2022/06/06 02:48:59;;;;;;;597.00;568.95;;;16.30;99.90;;;16.71;100.00;100686.28;5063527;28;20205;-61
2022/06/06 02:51:27;;;;;;;613.88;584.50;;;16.40;99.90;;;16.81;100.00;100685.25;5035504;28;20217;-61
2022/06/06 02:53:55;;;;;;;628.65;598.95;;;16.40;99.90;;;16.77;100.00;100687.09;5051053;28;20208;-61
2022/06/06 02:56:23;;;;;;;600.88;572.78;;;16.50;99.90;;;16.79;100.00;100673.72;5035406;28;20205;-62
2022/06/06 02:58:52;;;;;;;638.55;607.88;;;16.50;99.90;;;16.79;100.00;100676.38;5048851;28;20213;-61
2022/06/06 03:01:20;;;;;;;619.28;589.75;;;16.50;99.90;;;16.72;100.00;100682.72;5039105;28;20216;-61
2022/06/06 03:03:51;;;;;;;627.60;597.65;;;16.50;99.90;;;16.68;100.00;100679.19;5034752;28;20217;-61
2022/06/06 03:06:45;;;;;;;611.03;582.40;;;16.50;99.90;;;16.68;100.00;100689.88;5035882;28;20201;-61
2022/06/06 03:09:59;;;;;;;597.78;569.85;;;16.50;99.90;;;16.78;100.00;100690.66;5058676;28;20208;-61
2022/06/06 03:13:29;;;;;;;646.90;615.38;;;16.40;99.90;;;16.73;100.00;100698.72;5063721;28;20201;-61
2022/06/06 03:20:46;;;;;;;592.75;565.33;;;16.50;99.90;;;16.26;100.00;100681.41;5071251;28;20209;-61
2022/06/06 03:23:34;;;;;;;591.92;563.97;;;16.40;99.90;;;16.05;100.00;100712.75;5064559;28;20218;-61
2022/06/06 03:26:22;;;;;;;604.20;575.67;;;16.20;99.90;;;16.19;100.00;100721.50;5023508;28;20214;-61
2022/06/06 03:29:30;;;;;;;599.05;570.28;;;16.20;99.90;;;16.10;100.00;100726.94;5036332;28;20209;-61
2022/06/06 03:32:23;;;;;;;583.70;556.08;;;16.10;99.90;;;15.89;100.00;100736.00;5046264;28;20228;-61
2022/06/06 03:35:05;;;;;;;629.78;599.80;;;16.00;99.90;;;15.80;100.00;100754.72;5055736;28;20244;-62
2022/06/06 03:37:45;;;;;;;624.83;595.40;;;15.90;99.90;;;15.73;100.00;100769.00;5062868;28;20205;-61
2022/06/06 03:40:46;;;;;;;591.60;563.55;;;15.90;99.90;;;15.64;100.00;100781.50;5042012;28;20229;-61
2022/06/06 03:43:41;;;;;;;590.63;562.95;;;15.80;99.90;;;15.58;100.00;100800.16;5035964;28;20200;-61
2022/06/06 03:46:31;;;;;;;583.42;555.88;;;15.70;99.90;;;15.61;100.00;100820.63;5045435;28;20212;-61
2022/06/06 03:49:25;;;;;;;594.67;566.72;;;15.70;99.90;;;15.66;100.00;100840.16;5073342;28;20661;-61
2022/06/06 03:52:43;;;;;;;632.85;602.83;;;15.70;99.90;;;15.81;100.00;100865.84;5051894;28;20240;-61
2022/06/06 03:56:06;;;;;;;593.72;565.88;;;15.70;99.90;;;15.85;100.00;100873.81;5061406;28;20232;-62
2022/06/06 03:58:34;;;;;;;591.35;563.42;;;15.80;99.90;;;15.90;100.00;100882.69;5055145;28;20213;-61
2022/06/06 04:01:10;;;;;;;600.35;572.35;;;15.80;99.90;;;15.87;100.00;100885.38;5037344;28;20237;-61
2022/06/06 04:03:38;;;;;;;593.15;565.22;;;15.80;99.90;;;15.87;100.00;100895.16;5041160;28;20201;-62
2022/06/06 04:06:10;;;;;;;650.78;616.60;;;15.80;99.90;;;15.88;100.00;100900.47;5040234;28;20212;-61
2022/06/06 04:08:43;;;;;;;638.35;607.15;;;15.80;99.90;;;15.91;100.00;100911.13;5044221;28;20612;-62
2022/06/06 04:12:15;;;;;;;648.28;616.17;;;15.80;99.90;;;15.98;100.00;100938.66;5035539;28;20236;-62
2022/06/06 04:15:13;;;;;;;624.50;593.88;;;15.90;99.90;;;16.17;100.00;100950.13;5042626;28;20219;-62
2022/06/06 04:18:27;;;;;;;606.63;576.40;;;15.90;99.90;;;16.26;100.00;100947.41;5050801;28;20197;-62
2022/06/06 04:21:29;;;;;;;617.50;588.80;;;16.00;99.90;;;16.31;100.00;100930.44;5027680;28;20233;-62
2022/06/06 04:24:25;;;;;;;603.00;572.08;;;16.10;99.90;;;16.38;100.00;100927.75;5054470;28;20201;-62
2022/06/06 04:27:02;;;;;;;599.00;570.95;;;16.20;99.90;;;16.46;100.00;100915.22;5067459;28;20209;-62
2022/06/06 04:29:55;;;;;;;626.17;595.63;;;16.20;99.90;;;16.53;100.00;100922.28;5054620;28;20202;-63
2022/06/06 04:32:38;;;;;;;631.78;601.08;;;16.30;99.90;;;16.66;100.00;100920.44;5048518;28;20205;-62
2022/06/06 04:35:31;;;;;;;612.33;582.58;;;16.40;99.90;;;16.75;100.00;100901.66;5065625;28;20218;-62
2022/06/06 04:38:59;;;;;;;599.60;570.97;;;16.40;99.90;;;16.78;100.00;100889.19;5062082;28;20193;-62
2022/06/06 04:42:06;;;;;;;618.33;588.05;;;16.50;99.90;;;16.86;100.00;100876.63;5036657;28;20232;-62
2022/06/06 04:45:21;;;;;;;629.35;598.97;;;16.50;99.90;;;16.89;100.00;100859.69;5032457;28;20209;-62
2022/06/06 04:47:50;;;;;;;711.63;675.10;;;16.60;99.90;;;16.88;100.00;100853.47;4977298;28;20203;-62
2022/06/06 04:50:21;;;;;;;649.72;617.97;;;16.70;99.90;;;16.90;100.00;100862.38;5041105;28;20225;-62
2022/06/06 04:52:56;;;;;;;640.97;609.95;;;16.70;99.90;;;16.92;100.00;100851.69;5064286;28;20586;-63
2022/06/06 04:55:26;;;;;;;727.08;689.65;;;16.70;99.90;;;16.94;100.00;100848.09;5044564;28;20221;-62
2022/06/06 04:57:56;;;;;;;602.92;574.42;;;16.70;99.90;;;16.97;100.00;100847.16;5054757;28;20204;-62
2022/06/06 05:00:25;;;;;;;619.63;590.58;;;16.80;99.90;;;17.02;100.00;100850.69;5029568;28;20226;-62
2022/06/06 05:02:53;;;;;;;620.95;591.10;;;16.80;99.90;;;17.03;100.00;100849.78;5034467;28;20216;-62
2022/06/06 05:05:26;;;;;;;657.05;625.53;;;16.80;99.90;;;17.08;100.00;100847.06;5069273;28;20220;-63
2022/06/06 05:08:16;;;;;;;657.65;625.17;;;16.90;99.90;;;17.11;100.00;100841.69;5054017;28;20684;-63
2022/06/06 05:11:02;;;;;;;622.25;592.35;;;16.90;99.90;;;17.16;100.00;100851.41;5050373;28;20229;-62
2022/06/06 05:13:52;;;;;;;605.90;576.63;;;16.90;99.90;;;17.27;100.00;100841.47;5077643;28;20202;-61
2022/06/06 05:17:15;;;;;;;635.42;604.63;;;17.00;99.90;;;17.27;100.00;100798.72;5061905;28;20217;-62
2022/06/06 05:20:01;;;;;;;652.17;619.88;;;17.00;99.90;;;17.48;100.00;100783.28;4998696;28;20205;-62
2022/06/06 05:23:00;;;;;;;613.33;584.42;;;17.10;99.90;;;17.61;100.00;100792.91;5051741;28;20580;-62
2022/06/06 05:25:36;;;;;;;668.78;636.55;;;17.20;99.90;;;17.76;100.00;100791.84;5080791;28;20209;-63
2022/06/06 05:28:55;;;;;;;682.28;648.88;;;17.30;99.90;;;17.78;100.00;100772.19;5083916;28;20205;-62
2022/06/06 05:31:53;;;;;;;639.50;609.38;;;17.40;99.90;;;17.80;100.00;100765.03;5055092;28;20260;-63
2022/06/06 05:34:58;;;;;;;625.70;596.20;;;17.40;99.90;;;17.89;100.00;100769.34;5068511;28;20220;-63
2022/06/06 05:38:04;;;;;;;642.60;611.13;;;17.50;99.90;;;17.92;100.00;100780.88;4957203;28;20236;-62
2022/06/06 05:40:44;;;;;;;636.28;605.75;;;17.60;99.90;;;17.87;100.00;100784.53;5086946;28;20227;-62
2022/06/06 05:43:56;;;;;;;686.22;652.30;;;17.60;99.90;;;17.82;100.00;100795.31;5087580;28;20232;-62
2022/06/06 05:46:59;;;;;;;646.35;615.38;;;17.60;99.90;;;17.75;100.00;100817.72;5049232;28;20598;-62
2022/06/06 05:50:05;;;;;;;669.70;637.03;;;17.60;99.90;;;17.75;100.00;100823.06;5054410;28;20598;-62
2022/06/06 05:53:22;;;;;;;674.83;641.25;;;17.60;99.90;;;17.84;100.00;100832.75;5065017;28;20212;-62
2022/06/06 05:57:12;;;;;;;693.95;659.10;;;17.60;99.90;;;18.14;100.00;100824.25;5053914;28;20230;-62
2022/06/06 05:59:55;;;;;;;675.08;642.75;;;17.80;99.90;;;18.35;100.00;100828.41;5082438;28;20217;-62
2022/06/06 06:02:38;;;;;;;619.78;590.95;;;17.90;99.90;;;18.54;100.00;100839.69;5072982;28;20204;-62
2022/06/06 06:05:41;;;;;;;685.80;652.65;;;18.00;99.90;;;18.51;100.00;100819.19;5088982;28;20217;-62
2022/06/06 06:08:55;;;;;;;661.20;629.80;;;18.20;99.90;;;18.52;100.00;100818.28;5067058;28;20200;-62
2022/06/06 06:11:51;;;;;;;558.95;532.83;;;18.30;99.90;;;18.58;100.00;100830.69;5067820;28;20221;-62
2022/06/06 06:14:41;;;;;;;572.88;546.97;;;18.30;99.90;;;18.61;100.00;100821.72;5068295;28;20209;-62
2022/06/06 06:17:12;;;;;;;623.50;591.83;;;18.40;99.90;;;18.62;100.00;100805.66;5064553;28;20221;-62
2022/06/06 06:20:09;;;;;;;630.13;600.30;;;18.40;99.90;;;18.74;100.00;100805.44;5053556;28;20681;-63
2022/06/06 06:22:42;;;;;;;699.30;664.90;;;18.50;99.90;;;18.84;100.00;100807.03;5045849;28;20213;-63
2022/06/06 06:25:15;;;;;;;711.35;674.97;;;18.60;99.90;;;18.86;100.00;100807.00;5046987;28;20201;-63
2022/06/06 06:27:45;;;;;;;728.13;691.10;;;18.60;99.90;;;18.80;100.00;100801.75;5065608;28;20225;-63
2022/06/06 06:30:14;;;;;;;588.20;560.38;;;18.70;99.90;;;18.80;100.00;100799.94;5068313;28;20590;-63
2022/06/06 06:33:03;;;;;;;591.40;563.30;;;18.70;99.90;;;18.96;100.00;100821.09;5057858;28;20208;-63
2022/06/06 06:36:27;;;;;;;674.47;641.92;;;18.80;99.90;;;18.97;100.00;100796.06;5051903;28;20206;-63
2022/06/06 06:39:41;;;;;;;678.85;645.40;;;18.90;99.90;;;19.26;100.00;100827.66;5061073;28;20586;-63
2022/06/06 06:42:36;;;;;;;687.60;653.17;;;19.00;99.90;;;19.21;100.00;100802.72;5067298;28;20230;-63
2022/06/06 06:45:25;;;;;;;656.03;623.95;;;19.10;99.90;;;19.45;100.00;100816.50;5047201;28;20201;-62
2022/06/06 06:48:05;;;;;;;655.85;623.72;;;19.20;99.90;;;19.39;100.00;100797.88;5069635;28;20226;-63
2022/06/06 06:50:48;;;;;;;711.85;676.47;;;19.30;99.90;;;19.49;100.00;100815.53;5050414;28;20223;-63
2022/06/06 06:53:54;;;;;;;725.90;689.50;;;19.40;99.90;;;19.45;100.00;100813.81;5037325;28;20196;-63
2022/06/06 06:56:38;;;;;;;661.78;628.58;;;19.40;99.90;;;19.36;100.00;100789.88;5050351;28;20244;-63
2022/06/06 06:59:26;;;;;;;669.45;632.92;;;19.40;99.90;;;19.46;100.00;100788.78;5033280;28;20205;-63
2022/06/06 07:08:43;;;;;;;680.17;646.60;;;19.70;99.90;;;19.56;100.00;100791.31;5038793;28;20220;-63
2022/06/06 07:11:55;;;;;;;700.13;664.75;;;19.70;99.90;;;19.54;100.00;100769.00;5047638;28;20240;-63
2022/06/06 07:15:25;;;;;;;745.78;708.35;;;19.60;99.90;;;19.50;100.00;100770.81;5031721;28;20193;-62
2022/06/06 07:18:00;;;;;;;702.45;667.55;;;19.60;99.90;;;19.50;100.00;100747.56;5049520;28;20221;-62
2022/06/06 07:20:29;;;;;;;690.08;655.03;;;19.60;99.90;;;20.13;100.00;100821.28;5058221;28;20222;-63
2022/06/06 07:23:08;;;;;;;675.92;642.33;;;19.70;99.90;;;20.27;100.00;100769.94;5047752;28;20201;-63
2022/06/06 07:25:47;;;;;;;657.50;624.75;;;20.00;99.90;;;20.40;100.00;100763.34;5042492;28;20212;-63
2022/06/06 07:28:25;;;;;;;639.13;606.90;;;20.20;99.90;;;20.50;100.00;100761.31;5029752;28;20208;-63
2022/06/06 07:31:17;;;;;;;679.10;645.35;;;20.30;99.90;;;20.31;100.00;100737.56;5043570;28;20236;-63
2022/06/06 07:34:05;;;;;;;771.28;732.33;;;20.30;99.90;;;20.07;100.00;100682.72;5073650;28;20219;-63
2022/06/06 07:36:49;;;;;;;661.55;628.08;;;20.30;99.90;;;19.81;100.00;100650.28;5069190;28;20209;-63
2022/06/06 07:39:51;;;;;;;681.35;647.75;;;20.10;99.90;;;19.78;100.00;100653.94;5056356;28;20224;-63
2022/06/06 07:42:41;;;;;;;697.95;663.05;;;20.00;99.90;;;20.37;100.00;100712.34;5031096;28;20201;-63
2022/06/06 07:45:30;;;;;;;720.63;684.38;;;20.10;99.90;;;20.48;100.00;100674.50;5066883;28;20189;-63
2022/06/06 07:48:32;;;;;;;669.58;635.72;;;20.30;99.90;;;20.25;100.00;100651.78;5023956;28;20208;-63
2022/06/06 07:51:32;;;;;;;701.83;666.28;;;20.30;99.90;;;20.22;100.00;100651.88;5050974;28;20228;-63
2022/06/06 07:54:30;;;;;;;660.92;627.25;;;20.30;99.90;;;20.22;100.00;100643.81;5048391;28;20208;-63
2022/06/06 07:57:38;;;;;;;657.35;624.75;;;20.30;99.90;;;20.29;100.00;100644.53;5042096;28;20231;-63
2022/06/06 08:00:12;;;;;;;659.47;626.08;;;20.30;99.90;;;20.32;100.00;100626.53;5052609;28;20204;-63
2022/06/06 08:03:02;;;;;;;695.88;659.90;;;20.30;99.90;;;20.18;100.00;100607.25;5034157;28;20201;-63
2022/06/06 08:05:56;;;;;;;704.38;668.15;;;20.40;99.90;;;20.15;100.00;100620.75;5061423;28;20205;-63
2022/06/06 08:08:45;;;;;;;705.42;668.13;;;20.30;99.90;;;20.29;100.00;100625.75;5053293;28;20219;-63
2022/06/06 08:11:55;;;;;;;693.20;657.28;;;20.40;99.90;;;20.47;100.00;100638.69;5042731;28;20232;-63
2022/06/06 08:14:58;;;;;;;684.47;649.35;;;20.50;99.90;;;20.72;100.00;100642.44;5048843;28;20205;-63
2022/06/06 08:17:45;;;;;;;687.38;651.72;;;20.60;99.90;;;20.89;100.00;100636.59;5053577;28;20221;-63
2022/06/06 08:20:45;;;;;;;693.13;656.78;;;20.80;99.90;;;21.29;100.00;100657.78;5056061;28;20240;-63
2022/06/06 08:23:13;;;;;;;714.13;677.00;;;21.00;99.90;;;21.25;100.00;100612.19;5046645;28;20585;-63
2022/06/06 08:25:45;;;;;;;703.85;666.53;;;21.20;99.90;;;21.52;100.00;100637.31;5043410;28;20211;-64
2022/06/06 08:28:14;;;;;;;660.42;625.40;;;21.40;99.90;;;21.44;100.00;100599.91;5048919;28;20214;-63
2022/06/06 08:30:44;;;;;;;655.15;620.53;;;21.50;99.90;;;21.39;100.00;100578.53;5029983;28;20225;-63
2022/06/06 08:33:13;;;;;;;730.70;690.35;;;21.50;99.90;;;21.19;100.00;100564.81;5051243;28;20296;-63
2022/06/06 08:36:05;;;;;;;689.60;650.47;;;21.50;99.90;;;21.22;100.00;100566.53;5014341;28;20571;-63
2022/06/06 08:38:57;;;;;;;660.60;623.22;;;21.40;99.90;;;21.52;100.00;100595.16;5063782;28;20243;-63
2022/06/06 08:42:15;;;;;;;679.85;641.55;;;21.40;99.90;;;21.74;100.00;100622.22;5055534;28;20232;-63
2022/06/06 08:45:04;;;;;;;652.67;616.83;;;21.70;99.90;;;21.68;100.00;100569.47;5029959;28;20210;-63
2022/06/06 08:47:50;;;;;;;669.78;630.70;;;21.80;99.90;;;21.47;100.00;100546.00;5030739;28;20209;-63
2022/06/06 08:50:46;;;;;;;695.20;655.10;;;21.80;99.90;;;21.13;100.00;100489.72;5042937;28;20313;-63
2022/06/06 08:54:11;;;;;;;654.80;618.10;;;21.60;99.90;;;21.45;100.00;100520.06;5075602;28;20201;-63
2022/06/06 08:57:10;;;;;;;696.63;656.80;;;21.70;99.90;;;21.34;100.00;100529.38;5025664;28;20220;-63
2022/06/06 09:00:18;;;;;;;725.20;683.28;;;21.60;99.90;;;21.51;100.00;100538.69;5043860;28;20216;-63
2022/06/06 09:03:43;;;;;;;741.83;700.22;;;21.60;99.90;;;22.06;100.00;100551.13;5042455;28;20256;-63
2022/06/06 09:06:35;;;;;;;701.70;661.38;;;21.80;99.90;;;21.95;97.82;100472.50;5043863;28;20216;-63
2022/06/06 09:09:28;;;;;;;681.67;642.72;;;22.00;99.90;;;22.10;100.00;100524.94;5061657;28;20204;-63
2022/06/06 09:12:32;;;;;;;656.45;618.85;;;22.00;99.90;;;22.52;100.00;100563.78;5027182;28;20243;-64
2022/06/06 09:15:23;;;;;;;719.20;677.65;;;22.30;99.90;;;22.67;100.00;100538.94;5078926;28;20208;-63
2022/06/06 09:18:57;;;;;;;746.88;703.88;;;22.60;99.90;;;21.93;99.93;100416.03;5047138;28;20232;-63
2022/06/06 09:22:21;;;;;;;654.00;616.05;;;22.50;99.90;;;21.75;98.40;100383.53;5045605;28;20744;-63
2022/06/06 09:24:58;;;;;;;656.83;619.08;;;22.30;99.90;;;22.64;95.65;100463.56;5040273;28;20224;-63
2022/06/06 09:28:11;;;;;;;684.78;645.90;;;22.50;99.90;;;22.98;94.70;100476.59;5071615;28;20204;-63
2022/06/06 09:31:23;;;;;;;704.97;664.10;;;22.70;99.90;;;22.63;93.35;100385.47;5026414;28;20225;-63
2022/06/06 09:34:21;;;;;;;658.45;620.50;;;22.90;99.90;;;22.65;94.99;100414.13;5060659;28;20196;-63
2022/06/06 09:37:17;;;;;;;681.65;643.03;;;22.70;99.90;;;23.55;93.22;100477.81;5022912;28;20205;-63
2022/06/06 09:39:57;;;;;;;674.47;634.70;;;23.10;99.90;;;23.06;89.62;100357.59;5053850;28;20209;-63
2022/06/06 09:42:46;;;;;;;638.50;600.95;;;23.30;99.90;;;23.35;89.46;100360.81;5041169;28;20656;-63
2022/06/06 09:45:34;;;;;;;636.35;598.15;;;23.50;99.90;;;23.34;91.02;100372.56;5053523;28;20195;-63
2022/06/06 09:48:11;;;;;;;667.83;628.50;;;23.60;99.90;;;22.97;90.09;100290.56;5046892;28;20200;-63
2022/06/06 09:50:54;;;;;;;661.97;621.75;;;23.50;99.90;;;23.10;90.62;100312.47;5052251;28;20237;-63
2022/06/06 10:00:30;;;;;;;639.08;600.80;;;23.40;99.90;;;22.61;91.28;100236.41;5043343;28;20212;-62
2022/06/06 10:03:42;;;;;;;686.80;645.17;;;23.40;99.90;;;22.58;91.18;100221.25;5022593;28;20200;-63
2022/06/06 10:06:57;;;;;;;646.40;607.60;;;23.20;99.90;;;22.29;89.65;100162.38;5030028;28;20209;-63
2022/06/06 10:09:47;;;;;;;689.33;647.28;;;23.20;99.90;;;22.38;92.21;100193.41;5046224;28;20213;-63
2022/06/06 10:12:39;;;;;;;639.03;601.15;;;23.20;99.90;;;22.30;91.92;100201.81;5056159;28;20232;-63
2022/06/06 10:15:36;;;;;;;624.00;585.83;;;23.00;99.90;;;21.95;91.20;100133.25;5050522;28;20225;-63
2022/06/06 10:18:20;;;;;;;642.20;603.80;;;22.70;99.90;;;21.99;93.35;100162.66;5046738;28;20220;-62
2022/06/06 10:21:40;;;;;;;643.38;605.13;;;22.70;99.90;;;21.99;90.88;100134.88;5027494;28;20236;-62
2022/06/06 10:24:32;;;;;;;624.75;587.53;;;22.70;99.90;;;21.80;88.10;100077.38;5025566;28;20201;-61
2022/06/06 10:27:32;;;;;;;635.10;596.45;;;22.60;99.90;;;21.74;89.75;100067.72;5046531;28;20218;-61
2022/06/06 10:30:24;;;;;;;694.47;653.35;;;22.60;99.90;;;21.65;90.78;100070.81;4960908;28;20208;-61
2022/06/06 10:33:20;;;;;;;695.70;654.58;;;22.50;99.90;;;21.58;91.97;100091.72;5065978;28;20205;-61
2022/06/06 10:36:30;;;;;;;672.53;632.72;;;22.30;99.90;;;21.43;93.35;100097.75;5053732;28;20204;-62
2022/06/06 10:39:55;;;;;;;703.85;662.60;;;22.30;99.90;;;21.50;94.58;100123.44;5037551;28;20220;-62
2022/06/06 10:42:46;;;;;;;656.90;618.75;;;22.20;99.90;;;21.04;100.00;100151.25;4995022;28;20197;-62
2022/06/06 10:45:37;;;;;;;688.00;647.72;;;22.10;99.90;;;20.64;100.00;100192.16;5058289;28;20200;-62
2022/06/06 10:48:55;;;;;;;758.78;715.17;;;21.80;99.90;;;20.36;100.00;100232.50;5014501;28;20204;-62
2022/06/06 10:51:58;;;;;;;834.45;785.67;;;21.60;99.90;;;20.13;100.00;100287.84;5059141;28;20225;-62
2022/06/06 10:54:50;;;;;;;903.30;851.95;;;21.20;99.90;;;20.35;100.00;100330.13;5049761;28;20224;-62
2022/06/06 10:57:47;;;;;;;727.53;685.40;;;21.10;99.90;;;20.45;100.00;100335.19;5025516;28;20208;-62
2022/06/06 11:01:04;;;;;;;746.53;704.55;;;21.20;99.90;;;20.44;100.00;100348.66;5048798;28;20248;-62
2022/06/06 11:03:50;;;;;;;725.05;680.05;;;21.00;99.90;;;20.44;100.00;100332.53;5035382;28;20228;-62
2022/06/06 11:07:01;;;;;;;786.35;736.83;;;21.00;99.90;;;20.47;100.00;100319.00;5031885;28;20213;-62
2022/06/06 11:09:51;;;;;;;872.55;818.40;;;21.00;99.90;;;20.47;100.00;100304.69;5050954;28;20584;-62
2022/06/06 11:12:31;;;;;;;722.25;677.90;;;20.90;99.90;;;20.52;100.00;100284.81;5047681;28;20209;-63
2022/06/06 11:15:03;;;;;;;718.58;675.75;;;20.90;99.90;;;20.66;100.00;100281.66;5038906;28;20219;-63
2022/06/06 11:17:49;;;;;;;726.72;680.67;;;21.00;99.90;;;20.64;100.00;100259.31;5013347;28;20211;-62
2022/06/06 11:20:42;;;;;;;779.35;732.85;;;21.10;99.90;;;21.15;100.00;100317.56;5016110;28;20221;-62
2022/06/06 11:23:45;;;;;;;790.78;743.42;;;21.20;99.90;;;22.13;100.00;100365.97;5023232;28;20216;-62
2022/06/06 11:26:33;;;;;;;784.33;741.30;;;21.80;99.90;;;22.16;100.00;100282.34;5037795;28;20213;-63